createdAt,value
2023-01-17T00:00:52.146Z,5.96
2023-01-17T00:03:18.678Z,5.75
2023-01-17T00:05:46.336Z,6.27
2023-01-17T00:08:12.835Z,6.23
2023-01-17T00:10:48.563Z,6.69
2023-01-17T00:13:15.690Z,7.03
2023-01-17T00:15:44.012Z,7.18
2023-01-17T00:18:11.051Z,6.51
2023-01-17T00:20:40.306Z,5.83
2023-01-17T00:23:07.619Z,6.21
2023-01-17T00:25:34.577Z,6.21
2023-01-17T00:28:01.728Z,6.55
2023-01-17T00:30:29.317Z,6.19
2023-01-17T00:32:59.308Z,6.69
2023-01-17T00:35:26.716Z,6.52
2023-01-17T00:37:55.218Z,6.44
2023-01-17T00:40:21.952Z,6.05
2023-01-17T00:42:49.141Z,6.42
2023-01-17T00:45:18.859Z,6.84
2023-01-17T00:47:45.510Z,6.85
2023-01-17T00:50:14.567Z,6.23
2023-01-17T00:52:43.702Z,6.38
2023-01-17T00:55:11.097Z,6.72
2023-01-17T00:57:37.722Z,6.90
2023-01-17T01:00:04.333Z,6.43
2023-01-17T01:02:31.755Z,5.11
2023-01-17T01:04:58.628Z,5.64
2023-01-17T01:07:32.951Z,5.70
2023-01-17T01:09:59.814Z,5.66
2023-01-17T01:12:27.180Z,5.88
2023-01-17T01:14:55.338Z,6.52
2023-01-17T01:17:22.283Z,6.99
2023-01-17T01:19:49.312Z,6.27
2023-01-17T01:22:16.168Z,5.95
2023-01-17T01:24:50.320Z,6.48
2023-01-17T01:27:17.794Z,6.51
2023-01-17T01:29:44.686Z,6.84
2023-01-17T01:32:13.477Z,6.69
2023-01-17T01:34:40.118Z,7.07
2023-01-17T01:37:14.457Z,7.27
2023-01-17T01:39:41.665Z,7.10
2023-01-17T01:42:08.821Z,7.50
2023-01-17T01:44:35.445Z,7.60
2023-01-17T01:47:02.153Z,7.70
2023-01-17T01:49:36.274Z,7.55
2023-01-17T01:52:10.512Z,7.82
2023-01-17T01:54:37.878Z,7.12
2023-01-17T01:57:05.986Z,7.02
2023-01-17T01:59:32.961Z,5.99
2023-01-17T02:02:00.385Z,4.57
2023-01-17T02:04:27.749Z,4.74
2023-01-17T02:06:55.303Z,4.47
2023-01-17T02:09:23.551Z,5.23
2023-01-17T02:11:50.071Z,5.50
2023-01-17T02:14:24.135Z,4.75
2023-01-17T02:16:51.051Z,3.94
2023-01-17T02:19:19.885Z,3.72
2023-01-17T02:21:46.523Z,3.77
2023-01-17T02:24:13.309Z,4.24
2023-01-17T02:26:41.487Z,4.19
2023-01-17T02:29:08.422Z,4.86
2023-01-17T02:31:35.001Z,4.93
2023-01-17T02:34:01.714Z,4.72
2023-01-17T02:36:28.572Z,4.33
2023-01-17T02:38:55.153Z,4.12
2023-01-17T02:41:21.946Z,4.15
2023-01-17T02:43:48.404Z,4.57
2023-01-17T02:46:15.329Z,4.64
2023-01-17T02:48:44.377Z,4.79
2023-01-17T02:51:11.237Z,5.09
2023-01-17T02:53:37.989Z,5.36
2023-01-17T02:56:04.500Z,5.71
2023-01-17T02:58:31.340Z,5.41
2023-01-17T03:00:58.247Z,5.26
2023-01-17T03:03:26.798Z,6.07
2023-01-17T03:05:53.421Z,6.34
2023-01-17T03:08:21.751Z,6.70
2023-01-17T03:10:56.089Z,6.83
2023-01-17T03:13:22.765Z,6.20
2023-01-17T03:15:49.488Z,6.06
2023-01-17T03:18:16.773Z,6.06
2023-01-17T03:20:43.649Z,5.82
2023-01-17T03:23:10.914Z,5.74
2023-01-17T03:25:37.943Z,5.80
2023-01-17T03:28:05.884Z,6.24
2023-01-17T03:30:33.141Z,6.48
2023-01-17T03:33:00.063Z,6.57
2023-01-17T03:35:26.953Z,5.58
2023-01-17T03:37:55.899Z,5.38
2023-01-17T03:40:22.792Z,5.83
2023-01-17T03:42:50.334Z,6.00
2023-01-17T03:45:17.271Z,5.68
2023-01-17T03:47:46.357Z,5.06
2023-01-17T03:50:13.882Z,4.67
2023-01-17T03:52:41.428Z,5.09
2023-01-17T03:55:08.228Z,5.48
2023-01-17T03:57:35.725Z,5.96
2023-01-17T04:00:03.339Z,6.56
2023-01-17T04:02:31.530Z,7.01
2023-01-17T04:05:00.689Z,7.29
2023-01-17T04:07:27.953Z,7.37
2023-01-17T04:09:54.424Z,7.51
2023-01-17T04:12:20.986Z,7.52
2023-01-17T04:14:55.278Z,7.46
2023-01-17T04:17:22.625Z,7.58
2023-01-17T04:19:49.275Z,7.64
2023-01-17T04:22:16.628Z,7.63
2023-01-17T04:24:45.213Z,7.75
2023-01-17T04:27:12.131Z,7.77
2023-01-17T04:29:39.467Z,7.70
2023-01-17T04:32:06.221Z,7.71
2023-01-17T04:34:35.749Z,7.59
2023-01-17T04:37:09.793Z,7.64
2023-01-17T04:39:36.878Z,7.02
2023-01-17T04:42:04.278Z,6.94
2023-01-17T04:44:31.084Z,5.70
2023-01-17T04:46:58.150Z,5.09
2023-01-17T04:49:25.443Z,4.64
2023-01-17T04:51:52.015Z,4.42
2023-01-17T04:54:18.673Z,4.88
2023-01-17T04:56:50.499Z,4.44
2023-01-17T04:59:17.139Z,5.38
2023-01-17T05:01:51.309Z,6.13
2023-01-17T05:04:18.865Z,6.44
2023-01-17T05:06:46.266Z,6.67
2023-01-17T05:09:12.939Z,5.95
2023-01-17T05:11:39.478Z,6.04
2023-01-17T05:14:07.055Z,6.59
2023-01-17T05:16:33.680Z,6.98
2023-01-17T05:19:00.955Z,7.30
2023-01-17T05:21:27.878Z,7.64
2023-01-17T05:23:55.083Z,7.67
2023-01-17T05:26:21.596Z,7.13
2023-01-17T05:28:48.504Z,6.75
2023-01-17T05:31:15.582Z,6.21
2023-01-17T05:33:42.446Z,5.89
2023-01-17T05:36:11.422Z,6.47
2023-01-17T05:41:43.326Z,7.01
2023-01-17T05:44:09.909Z,6.51
2023-01-17T05:46:36.844Z,6.33
2023-01-17T05:49:04.505Z,6.53
2023-01-17T05:51:34.100Z,6.08
2023-01-17T05:54:00.987Z,6.39
2023-01-17T05:56:30.271Z,6.16
2023-01-17T05:58:56.889Z,6.90
2023-01-17T06:01:24.190Z,6.77
2023-01-17T06:03:51.198Z,6.53
2023-01-17T06:06:18.007Z,5.67
2023-01-17T06:08:44.808Z,6.07
2023-01-17T06:11:11.440Z,5.54
2023-01-17T06:13:40.336Z,5.70
2023-01-17T06:16:10.161Z,6.15
2023-01-17T06:18:39.364Z,6.88
2023-01-17T06:21:09.384Z,6.92
2023-01-17T06:23:36.207Z,7.06
2023-01-17T06:26:02.953Z,7.28
2023-01-17T06:28:29.539Z,7.03
2023-01-17T06:30:57.566Z,6.27
2023-01-17T06:33:25.449Z,5.98
2023-01-17T06:35:52.684Z,5.45
2023-01-17T06:38:19.194Z,5.79
2023-01-17T06:40:45.877Z,5.41
2023-01-17T06:43:12.507Z,5.39
2023-01-17T06:45:41.321Z,5.92
2023-01-17T06:48:08.018Z,6.47
2023-01-17T06:50:34.715Z,7.19
2023-01-17T06:53:01.720Z,7.35
2023-01-17T06:55:28.575Z,7.42
2023-01-17T06:57:55.498Z,7.75
2023-01-17T07:00:24.457Z,7.69
2023-01-17T07:02:52.900Z,6.56
2023-01-17T07:05:20.204Z,6.83
2023-01-17T07:07:47.089Z,6.76
2023-01-17T07:10:16.173Z,5.53
2023-01-17T07:18:06.271Z,4.30
2023-01-17T07:20:39.066Z,4.13
2023-01-17T07:23:05.686Z,4.22
2023-01-17T07:25:34.689Z,4.10
2023-01-17T07:28:03.152Z,4.47
2023-01-17T07:30:30.971Z,4.61
2023-01-17T07:32:59.063Z,4.71
2023-01-17T07:35:26.828Z,4.41
2023-01-17T07:37:53.634Z,3.98
2023-01-17T07:40:20.554Z,3.91
2023-01-17T07:42:52.650Z,4.25
2023-01-17T07:45:19.813Z,5.15
2023-01-17T07:47:46.945Z,4.44
2023-01-17T07:50:14.178Z,4.70
2023-01-17T07:52:58.224Z,5.79
2023-01-17T07:55:25.334Z,6.29
2023-01-17T07:57:51.899Z,6.86
2023-01-17T08:00:18.946Z,7.13
2023-01-17T08:02:47.167Z,7.15
2023-01-17T08:05:14.389Z,6.21
2023-01-17T08:11:04.891Z,5.55
2023-01-17T08:13:32.165Z,6.29
2023-01-17T08:15:58.834Z,5.91
2023-01-17T08:18:25.991Z,5.88
2023-01-17T08:20:53.061Z,6.12
2023-01-17T08:23:21.191Z,6.88
2023-01-17T08:25:50.184Z,6.68
2023-01-17T08:28:20.972Z,6.36
2023-01-17T08:30:47.839Z,5.86
2023-01-17T08:33:14.878Z,5.94
2023-01-17T08:35:41.882Z,5.39
2023-01-17T08:41:26.434Z,5.77
2023-01-17T08:43:53.877Z,5.82
2023-01-17T08:46:22.107Z,4.90
2023-01-17T08:48:56.426Z,5.22
2023-01-17T08:51:23.316Z,5.02
2023-01-17T08:53:51.766Z,4.72
2023-01-17T08:56:19.681Z,3.52
2023-01-17T08:58:46.320Z,4.29
2023-01-17T09:01:13.735Z,4.69
2023-01-17T09:03:42.655Z,3.92
2023-01-17T09:06:10.296Z,3.64
2023-01-17T09:08:38.817Z,4.10
2023-01-17T09:11:05.998Z,4.42
2023-01-17T09:13:33.279Z,4.42
2023-01-17T09:16:01.574Z,4.33
2023-01-17T09:18:28.936Z,4.07
2023-01-17T09:20:58.245Z,3.73
2023-01-17T09:23:24.964Z,3.88
2023-01-17T09:25:53.617Z,3.94
2023-01-17T09:28:21.203Z,3.50
2023-01-17T09:30:50.181Z,3.64
2023-01-17T09:33:17.150Z,3.53
2023-01-17T09:35:44.201Z,3.70
2023-01-17T09:38:12.735Z,4.24
2023-01-17T09:40:39.580Z,4.42
2023-01-17T09:43:08.754Z,3.78
2023-01-17T09:45:37.296Z,3.80
2023-01-17T09:48:04.526Z,4.10
2023-01-17T09:50:33.730Z,4.59
2023-01-17T09:53:04.085Z,4.12
2023-01-17T09:55:34.020Z,4.46
2023-01-17T09:58:04.954Z,5.38
2023-01-17T10:00:33.123Z,5.07
2023-01-17T10:03:03.180Z,4.43
2023-01-17T10:05:30.225Z,4.44
2023-01-17T10:07:57.639Z,3.74
2023-01-17T10:10:24.496Z,3.52
2023-01-17T10:12:51.494Z,3.70
2023-01-17T10:15:18.739Z,3.50
2023-01-17T10:17:47.022Z,3.28
2023-01-17T10:20:14.748Z,3.20
2023-01-17T10:25:44.999Z,3.29
2023-01-17T10:28:13.041Z,3.33
2023-01-17T10:30:40.327Z,2.87
2023-01-17T10:33:07.742Z,2.82
2023-01-17T10:35:34.736Z,3.24
2023-01-17T10:38:02.997Z,3.64
2023-01-17T10:40:30.618Z,3.75
2023-01-17T10:42:58.113Z,3.99
2023-01-17T10:45:25.529Z,4.33
2023-01-17T10:47:54.344Z,4.96
2023-01-17T10:50:22.434Z,5.74
2023-01-17T10:52:50.021Z,5.30
2023-01-17T10:55:20.052Z,5.18
2023-01-17T10:57:46.909Z,4.19
2023-01-17T11:00:13.830Z,3.99
2023-01-17T11:02:40.814Z,3.25
2023-01-17T11:05:08.014Z,2.69
2023-01-17T11:07:40.054Z,2.79
2023-01-17T11:19:00.229Z,4.81
2023-01-17T11:21:27.698Z,5.13
2023-01-17T11:23:57.777Z,5.21
2023-01-17T11:26:28.479Z,4.53
2023-01-17T11:28:55.668Z,4.82
2023-01-17T11:31:30.477Z,4.95
2023-01-17T11:33:58.872Z,4.81
2023-01-17T11:39:33.622Z,4.49
2023-01-17T11:42:00.700Z,5.48
2023-01-17T11:44:27.458Z,5.03
2023-01-17T11:46:54.318Z,4.58
2023-01-17T11:49:23.383Z,3.99
2023-01-17T11:51:50.256Z,4.16
2023-01-17T11:54:21.661Z,4.69
2023-01-17T11:56:48.536Z,5.44
2023-01-17T11:59:15.616Z,5.27
2023-01-17T12:01:43.180Z,5.68
2023-01-17T12:04:10.699Z,6.22
2023-01-17T12:06:56.112Z,6.62
2023-01-17T12:12:05.565Z,6.89
2023-01-17T12:14:33.841Z,6.92
2023-01-17T12:17:06.233Z,6.89
2023-01-17T12:19:34.325Z,6.19
2023-01-17T12:22:01.575Z,6.53
2023-01-17T12:24:31.563Z,5.16
2023-01-17T12:26:58.606Z,5.01
2023-01-17T12:29:28.066Z,5.83
2023-01-17T12:31:56.310Z,6.04
2023-01-17T12:34:22.935Z,6.42
2023-01-17T12:36:50.389Z,6.51
2023-01-17T12:39:19.204Z,6.86
2023-01-17T12:41:59.740Z,7.11
2023-01-17T12:44:27.575Z,7.15
2023-01-17T12:46:54.637Z,7.18
2023-01-17T12:49:21.648Z,7.29
2023-01-17T12:51:48.815Z,7.28
2023-01-17T12:54:15.774Z,7.31
2023-01-17T12:56:42.806Z,7.43
2023-01-17T12:59:10.204Z,7.29
2023-01-17T13:01:37.769Z,7.24
2023-01-17T13:04:05.615Z,7.48
2023-01-17T13:06:32.452Z,6.48
2023-01-17T13:08:59.293Z,6.32
2023-01-17T13:11:26.271Z,6.54
2023-01-17T13:13:55.800Z,6.92
2023-01-17T13:16:23.478Z,6.83
2023-01-17T13:18:52.339Z,7.07
2023-01-17T13:21:18.966Z,7.13
2023-01-17T13:23:48.147Z,6.77
2023-01-17T13:26:18.434Z,6.45
2023-01-17T13:28:45.228Z,6.53
2023-01-17T13:31:13.598Z,6.47
2023-01-17T13:33:42.051Z,6.82
2023-01-17T13:36:10.914Z,6.98
2023-01-17T13:38:37.887Z,6.95
2023-01-17T13:41:04.818Z,6.83
2023-01-17T13:43:33.253Z,6.91
2023-01-17T13:46:00.574Z,6.48
2023-01-17T13:48:27.256Z,6.66
2023-01-17T13:50:54.034Z,5.70
2023-01-17T13:53:20.671Z,5.79
2023-01-17T13:55:47.671Z,5.75
2023-01-17T13:58:14.616Z,5.37
2023-01-17T14:00:41.672Z,4.80
2023-01-17T14:03:08.458Z,3.92
2023-01-17T14:05:35.943Z,3.81
2023-01-17T14:08:02.996Z,3.84
2023-01-17T14:10:31.655Z,4.64
2023-01-17T14:12:58.430Z,5.95
2023-01-17T14:15:25.979Z,6.18
2023-01-17T14:18:26.609Z,5.92
2023-01-17T14:20:46.085Z,5.72
2023-01-17T14:26:06.006Z,5.17
2023-01-17T14:28:33.760Z,4.54
2023-01-17T14:31:00.513Z,4.40
2023-01-17T14:33:27.434Z,4.69
2023-01-17T14:35:54.526Z,5.59
2023-01-17T14:38:21.144Z,5.86
2023-01-17T14:40:50.773Z,5.66
2023-01-17T14:43:17.934Z,6.11
2023-01-17T14:45:44.959Z,7.01
2023-01-17T14:48:14.026Z,7.46
2023-01-17T14:50:43.435Z,6.95
2023-01-17T14:53:12.176Z,6.68
2023-01-17T14:55:39.756Z,7.07
2023-01-17T14:58:07.353Z,6.74
2023-01-17T15:00:38.919Z,6.02
2023-01-17T15:03:06.693Z,5.48
2023-01-17T15:05:34.985Z,5.96
2023-01-17T15:08:01.640Z,6.73
2023-01-17T15:10:30.138Z,7.04
2023-01-17T15:12:58.629Z,7.43
2023-01-17T15:15:26.636Z,7.39
2023-01-17T15:17:53.642Z,7.52
2023-01-17T15:20:20.312Z,6.51
2023-01-17T15:22:46.943Z,6.38
2023-01-17T15:25:16.141Z,6.68
2023-01-17T15:27:43.626Z,6.65
2023-01-17T15:30:10.265Z,6.75
2023-01-17T15:32:39.388Z,5.92
2023-01-17T15:35:06.374Z,6.72
2023-01-17T15:37:33.258Z,6.78
2023-01-17T15:40:00.289Z,6.91
2023-01-17T15:42:26.991Z,7.04
2023-01-17T15:44:56.079Z,6.48
2023-01-17T15:50:07.929Z,4.73
2023-01-17T15:52:34.574Z,3.99
2023-01-17T16:01:23.949Z,3.70
2023-01-17T16:03:54.052Z,3.61
2023-01-17T16:06:21.008Z,3.37
2023-01-17T16:08:50.188Z,3.41
2023-01-17T16:11:18.908Z,3.50
2023-01-17T16:13:47.398Z,4.78
2023-01-17T16:16:17.792Z,5.48
2023-01-17T16:18:47.286Z,5.44
2023-01-17T16:21:17.819Z,6.36
2023-01-17T16:23:47.164Z,6.60
2023-01-17T16:26:14.694Z,6.97
2023-01-17T16:28:43.177Z,7.11
2023-01-17T16:31:10.028Z,7.29
2023-01-17T16:33:39.057Z,7.01
2023-01-17T16:36:07.071Z,6.32
2023-01-17T16:38:37.081Z,6.50
2023-01-17T16:41:03.778Z,6.37
2023-01-17T16:43:31.174Z,7.07
2023-01-17T16:45:58.598Z,7.33
2023-01-17T16:48:27.775Z,7.46
2023-01-17T16:50:59.428Z,6.43
2023-01-17T16:53:26.400Z,6.80
2023-01-17T16:55:53.282Z,6.77
2023-01-17T16:58:31.962Z,6.78
2023-01-17T17:00:58.988Z,5.50
2023-01-17T17:03:26.142Z,6.69
2023-01-17T17:05:52.923Z,5.93
2023-01-17T17:08:20.036Z,5.21
2023-01-17T17:10:47.206Z,5.37
2023-01-17T17:13:14.164Z,5.64
2023-01-17T17:15:49.630Z,4.99
2023-01-17T17:18:19.305Z,3.81
2023-01-17T17:20:46.152Z,4.10
2023-01-17T17:23:12.925Z,4.10
2023-01-17T17:25:43.327Z,3.82
2023-01-17T17:28:13.140Z,3.77
2023-01-17T17:30:39.786Z,3.93
2023-01-17T17:33:07.380Z,3.68
2023-01-17T17:35:36.550Z,4.83
2023-01-17T17:38:03.559Z,5.18
2023-01-17T17:40:33.260Z,4.50
2023-01-17T17:42:59.762Z,4.32
2023-01-17T18:01:49.074Z,5.72
2023-01-17T18:04:16.869Z,4.36
2023-01-17T18:06:43.685Z,5.44
2023-01-17T18:12:13.389Z,5.37
2023-01-17T18:14:40.244Z,5.14
2023-01-17T18:17:06.734Z,5.11
2023-01-17T18:32:45.404Z,6.62
2023-01-17T18:35:12.787Z,6.11
2023-01-17T18:37:43.132Z,6.13
2023-01-17T18:40:13.664Z,5.63
2023-01-17T18:42:41.644Z,5.89
2023-01-17T18:45:08.439Z,6.58
2023-01-17T18:47:36.832Z,6.24
2023-01-17T18:50:06.209Z,6.51
2023-01-17T18:55:33.647Z,6.52
2023-01-17T19:00:56.801Z,7.69
2023-01-17T19:03:23.646Z,8.11
2023-01-17T19:05:50.450Z,7.80
2023-01-17T19:11:06.024Z,8.04
2023-01-17T19:13:33.616Z,7.87
2023-01-17T19:16:00.267Z,7.97
2023-01-17T19:18:28.660Z,6.18
2023-01-17T19:20:55.595Z,7.07
2023-01-17T19:23:24.176Z,6.64
2023-01-17T19:25:52.426Z,6.22
2023-01-17T19:28:19.144Z,6.28
2023-01-17T19:30:47.269Z,7.35
2023-01-17T19:33:14.191Z,7.28
2023-01-17T19:35:44.445Z,7.57
2023-01-17T19:38:11.757Z,7.04
2023-01-17T19:40:38.606Z,7.45
2023-01-17T19:46:22.119Z,8.49
2023-01-17T19:48:49.084Z,8.68
2023-01-17T19:57:38.807Z,7.98
2023-01-17T20:00:06.600Z,8.00
2023-01-17T20:02:33.689Z,8.56
2023-01-17T20:05:01.893Z,8.72
2023-01-17T20:07:30.818Z,8.99
2023-01-17T20:09:57.476Z,8.70
2023-01-17T20:12:28.219Z,8.93
2023-01-17T20:15:01.173Z,7.89
2023-01-17T20:17:36.202Z,7.47
2023-01-17T20:20:03.554Z,7.70
2023-01-17T20:22:30.460Z,7.38
2023-01-17T20:24:57.048Z,6.73
2023-01-17T20:27:26.634Z,6.90
2023-01-17T20:30:18.820Z,6.91
2023-01-17T20:32:50.778Z,6.68
2023-01-17T20:35:20.717Z,7.37
2023-01-17T20:37:47.450Z,6.63
2023-01-17T20:40:17.473Z,6.83
2023-01-17T20:42:51.123Z,6.84
2023-01-17T22:14:50.886Z,7.06
2023-01-17T22:17:20.250Z,6.30
2023-01-17T22:19:47.296Z,6.52
2023-01-17T22:22:14.185Z,6.43
2023-01-17T22:24:40.662Z,6.86
2023-01-17T22:27:07.635Z,7.07
2023-01-17T22:29:34.275Z,7.34
2023-01-17T22:32:01.764Z,7.32
2023-01-17T22:37:08.620Z,7.52
2023-01-17T22:39:42.913Z,7.43
2023-01-17T22:42:10.363Z,7.92
2023-01-17T22:44:37.553Z,8.40
2023-01-17T22:47:04.868Z,8.37
2023-01-17T22:49:32.144Z,7.93
2023-01-17T22:52:02.276Z,8.03
2023-01-17T22:54:29.505Z,8.14
2023-01-17T22:56:56.360Z,8.48
2023-01-17T22:59:23.263Z,8.63
2023-01-17T23:01:50.097Z,8.82
2023-01-17T23:04:19.200Z,8.97
2023-01-17T23:06:46.176Z,8.93
2023-01-17T23:09:20.475Z,9.01
2023-01-17T23:11:47.491Z,8.74
2023-01-17T23:14:14.838Z,8.33
2023-01-17T23:16:41.620Z,7.82
2023-01-17T23:19:09.242Z,7.65
2023-01-17T23:21:36.786Z,7.89
2023-01-17T23:24:05.835Z,7.26
2023-01-17T23:26:33.248Z,7.22
2023-01-17T23:29:00.423Z,7.57
2023-01-17T23:31:27.384Z,6.96
2023-01-17T23:33:54.321Z,6.63
2023-01-17T23:36:24.604Z,6.16
2023-01-17T23:38:54.564Z,5.98
2023-01-17T23:41:21.490Z,5.79
2023-01-17T23:43:48.377Z,5.52
2023-01-17T23:46:15.783Z,5.28
2023-01-17T23:48:42.736Z,5.01
2023-01-17T23:51:10.126Z,4.27
2023-01-17T23:53:38.974Z,4.42
2023-01-17T23:56:06.723Z,4.23
2023-01-17T23:58:40.352Z,4.04
